createdAt,value
2023-07-21T00:00:41.038Z,70.85
2023-07-21T00:01:41.102Z,72.31
2023-07-21T00:02:41.077Z,72.18
2023-07-21T00:03:41.022Z,68.94
2023-07-21T00:04:40.945Z,70.03
2023-07-21T00:05:40.924Z,72.35
2023-07-21T00:06:40.906Z,73.38
2023-07-21T00:07:40.916Z,72.37
2023-07-21T00:08:40.890Z,70.32
2023-07-21T00:09:40.839Z,73.49
2023-07-21T00:10:40.816Z,71.94
2023-07-21T00:11:40.837Z,73.46
2023-07-21T00:12:40.792Z,70.40
2023-07-21T00:13:40.750Z,72.34
2023-07-21T00:14:40.728Z,71.88
2023-07-21T00:15:40.721Z,73.15
2023-07-21T00:16:40.701Z,73.03
2023-07-21T00:17:40.786Z,71.40
2023-07-21T00:18:40.634Z,71.48
2023-07-21T00:19:40.611Z,71.05
2023-07-21T00:20:40.627Z,72.97
2023-07-21T00:21:40.596Z,72.33
2023-07-21T00:22:40.560Z,70.97
2023-07-21T00:23:40.524Z,72.64
2023-07-21T00:24:40.519Z,72.84
2023-07-21T00:25:40.534Z,71.62
2023-07-21T00:26:40.448Z,68.04
2023-07-21T00:27:40.425Z,69.94
2023-07-21T00:28:40.399Z,72.61
2023-07-21T00:29:40.379Z,73.25
2023-07-21T00:30:40.391Z,74.16
2023-07-21T00:31:40.547Z,73.81
2023-07-21T00:32:40.357Z,71.24
2023-07-21T00:33:40.291Z,72.25
2023-07-21T00:34:40.297Z,72.23
2023-07-21T00:35:40.273Z,71.54
2023-07-21T00:36:40.224Z,70.97
2023-07-21T00:37:40.225Z,73.11
2023-07-21T00:38:40.182Z,72.97
2023-07-21T00:39:40.187Z,71.46
2023-07-21T00:40:40.137Z,73.73
2023-07-21T00:41:40.117Z,72.64
2023-07-21T00:42:40.090Z,71.21
2023-07-21T00:43:40.068Z,73.66
2023-07-21T00:44:40.077Z,72.18
2023-07-21T00:45:40.088Z,73.93
2023-07-21T00:46:40.036Z,72.76
2023-07-21T00:47:39.997Z,72.18
2023-07-21T00:48:39.981Z,72.58
2023-07-21T00:49:39.963Z,70.56
2023-07-21T00:50:39.907Z,70.65
2023-07-21T00:51:39.883Z,69.44
2023-07-21T00:52:39.866Z,73.17
2023-07-21T00:53:39.876Z,71.43
2023-07-21T00:54:39.821Z,71.08
2023-07-21T00:55:39.812Z,73.09
2023-07-21T00:56:39.776Z,70.02
2023-07-21T00:57:39.756Z,70.14
2023-07-21T00:58:39.769Z,70.64
2023-07-21T00:59:39.740Z,70.05
2023-07-21T01:00:39.716Z,71.02
2023-07-21T01:01:39.668Z,70.14
2023-07-21T01:02:39.818Z,69.73
2023-07-21T01:03:39.727Z,69.31
2023-07-21T01:04:39.589Z,69.54
2023-07-21T01:05:40.575Z,70.09
2023-07-21T01:06:39.555Z,69.93
2023-07-21T01:07:39.628Z,68.05
2023-07-21T01:08:39.511Z,66.88
2023-07-21T01:09:39.482Z,63.20
2023-07-21T01:10:39.476Z,69.00
2023-07-21T01:11:39.448Z,69.49
2023-07-21T01:12:39.442Z,68.23
2023-07-21T01:13:39.397Z,67.87
2023-07-21T01:14:39.368Z,68.21
2023-07-21T01:15:39.350Z,66.16
2023-07-21T01:16:39.367Z,66.69
2023-07-21T01:17:40.064Z,67.55
2023-07-21T01:18:40.287Z,68.17
2023-07-21T01:19:39.257Z,67.12
2023-07-21T01:20:39.243Z,67.54
2023-07-21T01:21:39.247Z,66.33
2023-07-21T01:22:39.194Z,66.46
2023-07-21T01:23:39.180Z,67.96
2023-07-21T01:24:39.250Z,66.75
2023-07-21T01:25:39.134Z,68.95
2023-07-21T01:26:39.137Z,69.06
2023-07-21T01:27:39.076Z,68.29
2023-07-21T01:28:39.074Z,67.42
2023-07-21T01:29:39.033Z,67.81
2023-07-21T01:30:39.071Z,67.28
2023-07-21T01:31:39.021Z,63.13
2023-07-21T01:32:39.000Z,68.75
2023-07-21T01:33:38.946Z,66.72
2023-07-21T01:34:38.928Z,69.24
2023-07-21T01:35:38.930Z,70.26
2023-07-21T01:36:38.873Z,66.16
2023-07-21T01:37:38.851Z,66.15
2023-07-21T01:38:38.830Z,68.32
2023-07-21T01:39:38.854Z,71.74
2023-07-21T01:40:38.853Z,69.88
2023-07-21T01:41:38.770Z,68.04
2023-07-21T01:42:38.739Z,68.66
2023-07-21T01:43:38.739Z,69.59
2023-07-21T01:44:38.757Z,71.36
2023-07-21T01:45:38.672Z,70.81
2023-07-21T01:46:38.694Z,71.55
2023-07-21T01:47:38.642Z,70.84
2023-07-21T01:48:38.602Z,71.43
2023-07-21T01:49:38.618Z,70.83
2023-07-21T01:50:38.556Z,68.55
2023-07-21T01:51:38.541Z,70.97
2023-07-21T01:52:38.530Z,71.29
2023-07-21T01:53:38.516Z,69.97
2023-07-21T01:54:38.504Z,67.73
2023-07-21T01:55:38.450Z,73.05
2023-07-21T01:56:38.430Z,72.69
2023-07-21T01:57:38.402Z,70.44
2023-07-21T01:58:38.405Z,69.12
2023-07-21T01:59:38.360Z,71.11
2023-07-21T02:00:50.770Z,72.28
2023-07-21T02:01:40.339Z,69.55
2023-07-21T02:02:38.349Z,70.53
2023-07-21T02:03:38.409Z,71.20
2023-07-21T02:04:38.260Z,69.38
2023-07-21T02:05:38.232Z,70.26
2023-07-21T02:06:38.212Z,69.64
2023-07-21T02:07:38.215Z,69.44
2023-07-21T02:08:38.193Z,71.17
2023-07-21T02:09:38.142Z,72.67
2023-07-21T02:10:38.115Z,70.87
2023-07-21T02:11:38.098Z,71.53
2023-07-21T02:12:38.109Z,69.78
2023-07-21T02:13:38.062Z,70.46
2023-07-21T02:14:38.033Z,70.28
2023-07-21T02:15:38.017Z,72.43
2023-07-21T02:16:38.004Z,71.16
2023-07-21T02:17:38.101Z,70.83
2023-07-21T02:18:37.988Z,67.87
2023-07-21T02:19:37.927Z,68.99
2023-07-21T02:20:37.911Z,71.12
2023-07-21T02:21:37.924Z,72.54
2023-07-21T02:22:37.886Z,70.63
2023-07-21T02:23:37.856Z,70.42
2023-07-21T02:24:37.836Z,69.78
2023-07-21T02:25:37.787Z,68.81
2023-07-21T02:26:37.799Z,70.23
2023-07-21T02:27:37.742Z,70.99
2023-07-21T02:28:37.741Z,70.49
2023-07-21T02:29:37.695Z,70.80
2023-07-21T02:30:37.694Z,71.60
2023-07-21T02:31:37.743Z,71.61
2023-07-21T02:32:37.652Z,70.94
2023-07-21T02:33:37.612Z,71.59
2023-07-21T02:34:37.593Z,72.75
2023-07-21T02:35:37.606Z,71.47
2023-07-21T02:36:37.610Z,70.60
2023-07-21T02:37:37.539Z,73.32
2023-07-21T02:38:37.516Z,73.81
2023-07-21T02:39:37.486Z,74.07
2023-07-21T02:40:37.487Z,72.92
2023-07-21T02:41:37.433Z,72.65
2023-07-21T02:42:37.417Z,72.19
2023-07-21T02:43:37.387Z,71.44
2023-07-21T02:44:37.365Z,71.59
2023-07-21T02:45:37.370Z,73.14
2023-07-21T02:46:37.389Z,72.94
2023-07-21T02:47:37.314Z,72.98
2023-07-21T02:48:37.277Z,73.02
2023-07-21T02:49:37.286Z,73.04
2023-07-21T02:50:37.278Z,72.84
2023-07-21T02:51:37.210Z,74.18
2023-07-21T02:52:37.206Z,73.50
2023-07-21T02:53:37.184Z,72.73
2023-07-21T02:54:37.184Z,73.63
2023-07-21T02:55:37.120Z,69.94
2023-07-21T02:56:37.098Z,72.05
2023-07-21T02:57:37.080Z,72.25
2023-07-21T02:58:37.061Z,73.26
2023-07-21T02:59:37.062Z,73.54
2023-07-21T03:00:37.013Z,73.47
2023-07-21T03:01:37.008Z,72.56
2023-07-21T03:02:37.153Z,75.96
2023-07-21T03:03:37.081Z,74.86
2023-07-21T03:04:36.957Z,73.87
2023-07-21T03:05:36.908Z,70.74
2023-07-21T03:06:36.893Z,73.92
2023-07-21T03:07:36.864Z,73.19
2023-07-21T03:08:36.873Z,71.30
2023-07-21T03:09:36.828Z,73.60
2023-07-21T03:10:36.803Z,73.47
2023-07-21T03:11:36.798Z,73.04
2023-07-21T03:12:36.792Z,73.72
2023-07-21T03:13:36.766Z,73.37
2023-07-21T03:14:36.716Z,72.60
2023-07-21T03:15:36.723Z,73.54
2023-07-21T03:16:36.688Z,74.80
2023-07-21T03:17:36.720Z,74.45
2023-07-21T03:18:36.627Z,74.19
2023-07-21T03:19:36.604Z,73.66
2023-07-21T03:20:36.600Z,72.89
2023-07-21T03:21:36.671Z,73.97
2023-07-21T03:22:36.575Z,72.89
2023-07-21T03:23:36.527Z,75.60
2023-07-21T03:24:36.518Z,73.67
2023-07-21T03:25:36.475Z,72.51
2023-07-21T03:26:36.520Z,74.97
2023-07-21T03:27:36.470Z,74.07
2023-07-21T03:28:36.415Z,73.27
2023-07-21T03:29:36.395Z,73.68
2023-07-21T03:30:36.370Z,72.94
2023-07-21T03:31:36.468Z,72.71
2023-07-21T03:32:36.368Z,75.45
2023-07-21T03:33:36.315Z,74.89
2023-07-21T03:34:36.289Z,73.15
2023-07-21T03:35:36.269Z,74.82
2023-07-21T03:36:36.268Z,74.79
2023-07-21T03:37:36.218Z,75.69
2023-07-21T03:38:36.197Z,74.50
2023-07-21T03:39:36.176Z,74.81
2023-07-21T03:40:36.189Z,75.45
2023-07-21T03:41:36.172Z,76.73
2023-07-21T03:42:36.129Z,73.81
2023-07-21T03:43:36.093Z,75.61
2023-07-21T03:44:36.073Z,75.04
2023-07-21T03:45:36.104Z,73.82
2023-07-21T03:46:36.082Z,74.95
2023-07-21T03:47:36.031Z,74.69
2023-07-21T03:48:36.018Z,75.35
2023-07-21T03:49:35.972Z,75.75
2023-07-21T03:50:35.981Z,73.87
2023-07-21T03:51:35.923Z,76.25
2023-07-21T03:52:35.904Z,76.16
2023-07-21T03:53:37.487Z,75.77
2023-07-21T03:54:36.900Z,73.80
2023-07-21T03:55:35.870Z,75.77
2023-07-21T03:56:35.818Z,75.51
2023-07-21T03:57:35.796Z,75.81
2023-07-21T03:58:35.778Z,74.44
2023-07-21T03:59:35.805Z,74.70
2023-07-21T04:00:35.732Z,74.14
2023-07-21T04:01:35.774Z,73.39
2023-07-21T04:02:35.866Z,75.08
2023-07-21T04:03:35.756Z,74.85
2023-07-21T04:04:35.837Z,72.91
2023-07-21T04:05:35.640Z,73.38
2023-07-21T04:06:35.610Z,74.36
2023-07-21T04:07:35.589Z,76.20
2023-07-21T04:08:35.605Z,75.88
2023-07-21T04:09:35.577Z,73.27
2023-07-21T04:10:35.525Z,73.37
2023-07-21T04:11:35.507Z,75.97
2023-07-21T04:12:35.503Z,75.10
2023-07-21T04:13:35.511Z,75.94
2023-07-21T04:14:35.456Z,73.96
2023-07-21T04:15:35.431Z,73.99
2023-07-21T04:16:35.479Z,74.18
2023-07-21T04:17:35.401Z,75.14
2023-07-21T04:18:35.392Z,74.56
2023-07-21T04:19:35.344Z,75.53
2023-07-21T04:20:35.320Z,75.59
2023-07-21T04:21:35.307Z,76.28
2023-07-21T04:22:35.320Z,75.04
2023-07-21T04:23:35.291Z,75.22
2023-07-21T04:24:35.405Z,74.70
2023-07-21T04:25:35.222Z,74.54
2023-07-21T04:26:35.193Z,76.55
2023-07-21T04:27:35.206Z,77.99
2023-07-21T04:28:35.160Z,75.19
2023-07-21T04:29:37.192Z,76.38
2023-07-21T04:30:36.118Z,75.56
2023-07-21T04:31:35.209Z,75.47
2023-07-21T04:32:35.134Z,73.20
2023-07-21T04:33:35.050Z,75.44
2023-07-21T04:34:35.028Z,76.19
2023-07-21T04:35:35.018Z,75.58
2023-07-21T04:36:35.020Z,75.12
2023-07-21T04:37:34.963Z,74.82
2023-07-21T04:38:34.956Z,76.84
2023-07-21T04:39:34.925Z,75.21
2023-07-21T04:40:34.897Z,74.16
2023-07-21T04:41:34.910Z,76.48
2023-07-21T04:42:34.863Z,75.26
2023-07-21T04:43:34.853Z,71.92
2023-07-21T04:44:34.818Z,72.16
2023-07-21T04:45:34.825Z,75.06
2023-07-21T04:46:34.835Z,76.60
2023-07-21T04:47:34.806Z,75.84
2023-07-21T04:48:34.733Z,75.80
2023-07-21T04:49:34.715Z,76.07
2023-07-21T04:50:34.715Z,73.71
2023-07-21T04:51:34.676Z,75.14
2023-07-21T04:52:34.646Z,76.15
2023-07-21T04:53:34.619Z,74.78
2023-07-21T04:54:34.600Z,74.53
2023-07-21T04:55:34.613Z,77.38
2023-07-21T04:56:34.556Z,75.58
2023-07-21T04:57:34.536Z,75.64
2023-07-21T04:58:34.515Z,77.19
2023-07-21T04:59:34.545Z,76.71
2023-07-21T05:00:34.507Z,74.55
2023-07-21T05:01:34.464Z,76.46
2023-07-21T05:02:34.496Z,77.89
2023-07-21T05:03:34.506Z,76.80
2023-07-21T05:04:34.414Z,76.68
2023-07-21T05:05:34.364Z,76.96
2023-07-21T05:06:34.347Z,76.34
2023-07-21T05:07:34.324Z,75.91
2023-07-21T05:08:34.337Z,76.20
2023-07-21T05:09:34.314Z,75.77
2023-07-21T05:10:34.266Z,77.70
2023-07-21T05:11:34.247Z,76.31
2023-07-21T05:12:34.228Z,75.60
2023-07-21T05:13:34.235Z,76.06
2023-07-21T05:14:34.209Z,76.71
2023-07-21T05:15:34.157Z,75.33
2023-07-21T05:16:34.141Z,74.51
2023-07-21T05:17:34.134Z,72.80
2023-07-21T05:18:34.122Z,74.23
2023-07-21T05:19:34.072Z,73.17
2023-07-21T05:20:34.054Z,74.63
2023-07-21T05:21:34.060Z,74.08
2023-07-21T05:22:34.036Z,72.88
2023-07-21T05:23:34.022Z,70.87
2023-07-21T05:24:34.025Z,72.22
2023-07-21T05:25:33.953Z,71.15
2023-07-21T05:26:33.920Z,71.30
2023-07-21T05:27:33.951Z,72.98
2023-07-21T05:28:33.875Z,74.16
2023-07-21T05:29:33.867Z,74.00
2023-07-21T05:30:33.835Z,73.73
2023-07-21T05:31:33.895Z,73.13
2023-07-21T05:32:33.962Z,75.09
2023-07-21T05:33:33.773Z,73.00
2023-07-21T05:34:33.751Z,74.02
2023-07-21T05:35:33.735Z,74.86
2023-07-21T05:36:33.744Z,75.32
2023-07-21T05:37:33.717Z,72.65
2023-07-21T05:38:33.675Z,73.42
2023-07-21T05:39:33.648Z,74.08
2023-07-21T05:40:33.625Z,72.30
2023-07-21T05:41:33.646Z,74.80
2023-07-21T05:42:35.007Z,73.20
2023-07-21T05:43:33.569Z,73.40
2023-07-21T05:44:33.568Z,74.07
2023-07-21T05:45:33.518Z,73.84
2023-07-21T05:46:33.572Z,73.05
2023-07-21T05:47:33.503Z,74.04
2023-07-21T05:48:33.449Z,73.58
2023-07-21T05:49:33.432Z,75.06
2023-07-21T05:50:33.440Z,73.80
2023-07-21T05:51:33.409Z,74.13
2023-07-21T05:52:33.393Z,73.65
2023-07-21T05:53:33.366Z,74.07
2023-07-21T05:54:33.313Z,73.74
2023-07-21T05:55:33.328Z,72.55
2023-07-21T05:56:33.279Z,75.16
2023-07-21T05:57:33.256Z,75.12
2023-07-21T05:58:33.241Z,73.81
2023-07-21T05:59:33.249Z,74.80
2023-07-21T06:00:33.260Z,75.14
2023-07-21T06:01:33.166Z,74.22
2023-07-21T06:02:33.176Z,71.24
2023-07-21T06:03:33.227Z,73.87
2023-07-21T06:04:33.162Z,74.36
2023-07-21T06:05:33.089Z,74.01
2023-07-21T06:06:33.069Z,71.92
2023-07-21T06:07:33.038Z,74.73
2023-07-21T06:08:33.018Z,73.62
2023-07-21T06:09:33.030Z,73.80
2023-07-21T06:10:33.974Z,74.12
2023-07-21T06:11:32.952Z,72.69
2023-07-21T06:12:32.937Z,74.31
2023-07-21T06:13:32.961Z,74.88
2023-07-21T06:14:32.922Z,74.73
2023-07-21T06:15:32.876Z,73.15
2023-07-21T06:16:32.864Z,72.52
2023-07-21T06:17:32.832Z,73.90
2023-07-21T06:18:34.379Z,73.17
2023-07-21T06:19:32.790Z,73.11
2023-07-21T06:20:32.764Z,73.57
2023-07-21T06:21:32.746Z,73.58
2023-07-21T06:22:32.732Z,72.68
2023-07-21T06:23:32.730Z,73.25
2023-07-21T06:24:32.706Z,71.52
2023-07-21T06:25:32.660Z,72.99
2023-07-21T06:26:32.636Z,71.57
2023-07-21T06:27:32.660Z,70.34
2023-07-21T06:28:32.623Z,70.50
2023-07-21T06:29:32.572Z,71.67
2023-07-21T06:30:32.572Z,71.96
2023-07-21T06:31:32.524Z,72.16
2023-07-21T06:32:32.569Z,72.37
2023-07-21T06:33:32.504Z,72.13
2023-07-21T06:34:32.464Z,70.66
2023-07-21T06:35:32.448Z,67.67
2023-07-21T06:36:32.423Z,71.82
2023-07-21T06:37:32.429Z,72.71
2023-07-21T06:38:32.386Z,71.29
2023-07-21T06:39:32.361Z,72.43
2023-07-21T06:40:32.344Z,71.62
2023-07-21T06:41:32.478Z,72.29
2023-07-21T06:42:32.345Z,69.39
2023-07-21T06:43:32.276Z,70.37
2023-07-21T06:44:32.261Z,72.28
2023-07-21T06:45:32.239Z,71.27
2023-07-21T06:46:32.271Z,71.03
2023-07-21T06:47:34.341Z,69.54
2023-07-21T06:48:33.174Z,69.81
2023-07-21T06:49:32.174Z,70.57
2023-07-21T06:50:32.139Z,71.22
2023-07-21T06:51:32.136Z,70.65
2023-07-21T06:52:32.085Z,72.02
2023-07-21T06:53:32.076Z,72.34
2023-07-21T06:54:32.063Z,71.04
2023-07-21T06:55:32.053Z,71.31
2023-07-21T06:56:32.036Z,69.90
2023-07-21T06:57:31.987Z,72.32
2023-07-21T06:58:31.963Z,71.71
2023-07-21T06:59:31.941Z,70.73
2023-07-21T07:00:31.949Z,69.07
2023-07-21T07:01:31.906Z,71.25
2023-07-21T07:02:31.908Z,71.48
2023-07-21T07:03:31.888Z,70.86
2023-07-21T07:04:31.863Z,70.10
2023-07-21T07:05:31.893Z,71.23
2023-07-21T07:06:31.792Z,70.70
2023-07-21T07:07:31.774Z,71.86
2023-07-21T07:08:31.748Z,71.87
2023-07-21T07:09:31.762Z,71.85
2023-07-21T07:10:31.734Z,70.69
2023-07-21T07:11:31.689Z,71.16
2023-07-21T07:12:31.665Z,71.08
2023-07-21T07:13:31.644Z,71.63
2023-07-21T07:14:31.653Z,72.54
2023-07-21T07:15:31.621Z,71.75
2023-07-21T07:16:31.605Z,71.42
2023-07-21T07:17:31.600Z,72.79
2023-07-21T07:18:31.574Z,70.19
2023-07-21T07:19:31.565Z,71.14
2023-07-21T07:20:31.507Z,72.02
2023-07-21T07:21:31.475Z,72.51
2023-07-21T07:22:31.462Z,73.26
2023-07-21T07:23:31.474Z,72.48
2023-07-21T07:24:31.449Z,71.81
2023-07-21T07:25:31.444Z,72.07
2023-07-21T07:26:31.372Z,72.70
2023-07-21T07:27:31.359Z,72.26
2023-07-21T07:28:31.365Z,72.59
2023-07-21T07:29:31.308Z,72.39
2023-07-21T07:30:31.368Z,72.48
2023-07-21T07:31:31.281Z,72.65
2023-07-21T07:32:31.312Z,73.05
2023-07-21T07:33:31.251Z,71.50
2023-07-21T07:34:31.236Z,71.18
2023-07-21T07:35:31.186Z,70.09
2023-07-21T07:36:31.151Z,72.12
2023-07-21T07:37:31.171Z,72.17
2023-07-21T07:38:31.118Z,72.97
2023-07-21T07:39:31.097Z,71.28
2023-07-21T07:40:31.070Z,71.97
2023-07-21T07:41:31.058Z,73.05
2023-07-21T07:42:31.105Z,72.13
2023-07-21T07:43:31.000Z,71.80
2023-07-21T07:44:30.985Z,71.17
2023-07-21T07:45:31.247Z,71.75
2023-07-21T07:46:31.015Z,71.65
2023-07-21T07:47:30.967Z,72.42
2023-07-21T07:48:31.892Z,72.05
2023-07-21T07:49:30.861Z,72.40
2023-07-21T07:50:30.852Z,71.87
2023-07-21T07:51:30.853Z,71.42
2023-07-21T07:52:30.801Z,71.67
2023-07-21T07:53:30.829Z,71.44
2023-07-21T07:54:30.758Z,72.31
2023-07-21T07:55:30.751Z,73.08
2023-07-21T07:56:30.752Z,71.63
2023-07-21T07:57:30.706Z,72.25
2023-07-21T07:58:30.855Z,73.04
2023-07-21T07:59:30.944Z,70.93
2023-07-21T08:00:30.663Z,73.25
2023-07-21T08:01:30.653Z,72.13
2023-07-21T08:02:30.605Z,69.94
2023-07-21T08:03:30.701Z,71.51
2023-07-21T08:04:30.616Z,70.47
2023-07-21T08:05:30.552Z,70.01
2023-07-21T08:06:31.048Z,71.60
2023-07-21T08:07:31.484Z,72.47
2023-07-21T08:08:30.472Z,72.06
2023-07-21T08:09:30.455Z,71.89
2023-07-21T08:10:30.460Z,70.97
2023-07-21T08:11:30.401Z,70.04
2023-07-21T08:12:30.398Z,71.11
2023-07-21T08:13:30.364Z,72.13
2023-07-21T08:14:30.375Z,70.89
2023-07-21T08:15:30.358Z,70.39
2023-07-21T08:16:30.329Z,72.04
2023-07-21T08:17:30.398Z,69.47
2023-07-21T08:18:30.269Z,72.72
2023-07-21T08:19:30.276Z,71.37
2023-07-21T08:20:30.229Z,73.01
2023-07-21T08:21:30.315Z,71.33
2023-07-21T08:22:30.197Z,69.74
2023-07-21T08:23:30.691Z,71.05
2023-07-21T08:24:31.222Z,72.01
2023-07-21T08:25:30.137Z,71.65
2023-07-21T08:26:30.116Z,72.60
2023-07-21T08:27:30.096Z,70.73
2023-07-21T08:28:30.106Z,70.96
2023-07-21T08:29:30.085Z,71.37
2023-07-21T08:30:32.474Z,72.36
2023-07-21T08:31:31.051Z,72.56
2023-07-21T08:32:30.049Z,73.10
2023-07-21T08:33:30.012Z,72.16
2023-07-21T08:34:29.965Z,70.67
2023-07-21T08:35:29.945Z,72.53
2023-07-21T08:36:36.882Z,71.08
2023-07-21T08:37:31.909Z,70.43
2023-07-21T08:38:29.956Z,70.50
2023-07-21T08:39:29.878Z,71.77
2023-07-21T08:40:29.893Z,72.03
2023-07-21T08:41:29.839Z,71.73
2023-07-21T08:42:29.859Z,71.43
2023-07-21T08:43:29.834Z,69.40
2023-07-21T08:44:29.788Z,72.90
2023-07-21T08:45:29.770Z,72.87
2023-07-21T08:46:29.934Z,71.43
2023-07-21T08:47:30.673Z,72.64
2023-07-21T08:48:29.726Z,72.64
2023-07-21T08:49:29.694Z,74.11
2023-07-21T08:50:29.692Z,72.61
2023-07-21T08:51:29.661Z,70.80
2023-07-21T08:52:29.683Z,71.87
2023-07-21T08:53:29.651Z,70.14
2023-07-21T08:54:29.610Z,72.74
2023-07-21T08:55:29.674Z,72.95
2023-07-21T08:56:29.598Z,71.87
2023-07-21T08:57:29.592Z,71.69
2023-07-21T08:58:29.545Z,70.89
2023-07-21T08:59:29.523Z,71.31
2023-07-21T09:00:29.504Z,70.93
2023-07-21T09:01:29.568Z,69.97
2023-07-21T09:02:29.470Z,71.05
2023-07-21T09:03:29.550Z,72.69
2023-07-21T09:04:29.420Z,71.24
2023-07-21T09:05:29.580Z,70.79
2023-07-21T09:06:29.416Z,72.07
2023-07-21T09:07:29.363Z,71.70
2023-07-21T09:08:29.377Z,72.56
2023-07-21T09:09:29.331Z,72.04
2023-07-21T09:10:29.340Z,71.45
2023-07-21T09:11:29.298Z,71.96
2023-07-21T09:12:29.281Z,71.34
2023-07-21T09:13:29.265Z,71.73
2023-07-21T09:14:29.236Z,72.91
2023-07-21T09:15:29.294Z,71.32
2023-07-21T09:16:29.453Z,71.05
2023-07-21T09:17:29.211Z,71.02
2023-07-21T09:18:29.180Z,71.29
2023-07-21T09:19:29.171Z,72.74
2023-07-21T09:20:29.171Z,71.13
2023-07-21T09:21:29.105Z,72.36
2023-07-21T09:22:29.110Z,71.92
2023-07-21T09:23:29.064Z,70.44
2023-07-21T09:24:29.168Z,71.24
2023-07-21T09:25:29.031Z,70.53
2023-07-21T09:26:29.347Z,70.44
2023-07-21T09:27:28.996Z,70.10
2023-07-21T09:28:28.973Z,71.56
2023-07-21T09:29:29.048Z,71.40
2023-07-21T09:30:28.933Z,70.39
2023-07-21T09:31:28.959Z,71.13
2023-07-21T09:32:28.943Z,69.87
2023-07-21T09:33:28.909Z,70.93
2023-07-21T09:34:28.892Z,71.57
2023-07-21T09:35:28.838Z,71.06
2023-07-21T09:36:29.109Z,69.81
2023-07-21T09:37:28.804Z,71.47
2023-07-21T09:38:28.820Z,71.55
2023-07-21T09:39:28.776Z,71.64
2023-07-21T09:40:28.766Z,70.86
2023-07-21T09:41:28.726Z,69.99
2023-07-21T09:42:28.756Z,71.16
2023-07-21T09:43:28.717Z,70.06
2023-07-21T09:44:28.673Z,70.25
2023-07-21T09:45:28.647Z,68.91
2023-07-21T09:46:28.660Z,70.31
2023-07-21T09:47:28.799Z,69.40
2023-07-21T09:48:28.590Z,68.37
2023-07-21T09:49:28.569Z,70.02
2023-07-21T09:50:28.554Z,70.69
2023-07-21T09:51:28.537Z,70.88
2023-07-21T09:52:28.562Z,69.46
2023-07-21T09:53:28.517Z,71.21
2023-07-21T09:54:28.480Z,69.81
2023-07-21T09:55:28.463Z,68.46
2023-07-21T09:56:28.722Z,68.65
2023-07-21T09:57:28.451Z,68.92
2023-07-21T09:58:28.401Z,67.79
2023-07-21T09:59:28.445Z,71.07
2023-07-21T10:00:28.403Z,68.35
2023-07-21T10:01:28.852Z,69.64
2023-07-21T10:02:28.355Z,69.64
2023-07-21T10:03:28.348Z,68.64
2023-07-21T10:04:28.282Z,68.45
2023-07-21T10:05:28.275Z,70.54
2023-07-21T10:06:28.278Z,69.32
2023-07-21T10:07:28.223Z,70.06
2023-07-21T10:08:28.204Z,69.22
2023-07-21T10:09:28.191Z,68.23
2023-07-21T10:10:28.200Z,71.09
2023-07-21T10:11:28.445Z,68.58
2023-07-21T10:12:28.131Z,69.01
2023-07-21T10:13:28.118Z,68.57
2023-07-21T10:14:28.104Z,69.14
2023-07-21T10:15:28.173Z,68.68
2023-07-21T10:16:28.129Z,70.81
2023-07-21T10:17:28.043Z,70.08
2023-07-21T10:18:28.016Z,69.15
2023-07-21T10:19:28.024Z,68.20
2023-07-21T10:20:29.011Z,66.49
2023-07-21T10:21:28.122Z,65.04
2023-07-21T10:22:27.940Z,64.45
2023-07-21T10:23:27.930Z,63.40
2023-07-21T10:24:28.081Z,63.22
2023-07-21T10:25:27.886Z,64.27
2023-07-21T10:26:27.877Z,64.15
2023-07-21T10:27:27.862Z,66.18
2023-07-21T10:28:27.834Z,68.61
2023-07-21T10:29:27.852Z,69.49
2023-07-21T10:30:27.795Z,68.86
2023-07-21T10:31:28.632Z,70.28
2023-07-21T10:32:27.789Z,70.18
2023-07-21T10:33:27.800Z,70.14
2023-07-21T10:34:27.751Z,72.25
2023-07-21T10:35:27.704Z,70.42
2023-07-21T10:36:27.682Z,70.82
2023-07-21T10:37:27.665Z,69.55
2023-07-21T10:38:27.691Z,70.75
2023-07-21T10:39:27.628Z,71.27
2023-07-21T10:40:27.600Z,70.85
2023-07-21T10:41:27.767Z,69.19
2023-07-21T10:42:27.611Z,68.72
2023-07-21T10:43:27.587Z,69.05
2023-07-21T10:44:27.537Z,69.66
2023-07-21T10:45:27.520Z,70.39
2023-07-21T10:46:30.243Z,70.68
2023-07-21T10:47:27.593Z,67.78
2023-07-21T10:48:27.507Z,69.31
2023-07-21T10:49:27.478Z,70.13
2023-07-21T10:50:27.434Z,70.27
2023-07-21T10:51:27.701Z,70.32
2023-07-21T10:52:27.422Z,68.93
2023-07-21T10:53:27.373Z,70.32
2023-07-21T10:54:27.356Z,70.53
2023-07-21T10:55:27.338Z,71.27
2023-07-21T10:56:27.325Z,70.13
2023-07-21T10:57:27.332Z,70.88
2023-07-21T10:58:27.305Z,70.63
2023-07-21T10:59:27.266Z,68.69
2023-07-21T11:00:27.251Z,69.75
2023-07-21T11:01:27.479Z,68.86
2023-07-21T11:02:27.280Z,67.35
2023-07-21T11:03:27.276Z,69.07
2023-07-21T11:04:27.173Z,68.08
2023-07-21T11:05:27.185Z,69.07
2023-07-21T11:06:27.182Z,68.77
2023-07-21T11:07:27.115Z,68.66
2023-07-21T11:08:27.115Z,67.33
2023-07-21T11:09:27.091Z,70.75
2023-07-21T11:10:27.072Z,70.23
2023-07-21T11:11:27.386Z,70.25
2023-07-21T11:12:27.021Z,69.70
2023-07-21T11:13:27.006Z,69.98
2023-07-21T11:14:26.992Z,69.63
2023-07-21T11:15:26.998Z,68.72
2023-07-21T11:16:26.999Z,69.76
2023-07-21T11:17:26.979Z,68.16
2023-07-21T11:18:26.912Z,68.36
2023-07-21T11:19:26.908Z,68.62
2023-07-21T11:20:26.907Z,68.29
2023-07-21T11:21:27.243Z,69.48
2023-07-21T11:22:26.858Z,68.65
2023-07-21T11:23:26.832Z,69.72
2023-07-21T11:24:26.957Z,68.54
2023-07-21T11:25:26.812Z,69.38
2023-07-21T11:26:26.784Z,70.36
2023-07-21T11:27:26.748Z,70.09
2023-07-21T11:28:26.730Z,70.05
2023-07-21T11:29:26.740Z,69.91
2023-07-21T11:30:26.681Z,69.98
2023-07-21T11:31:26.982Z,69.90
2023-07-21T11:32:26.704Z,69.72
2023-07-21T11:33:26.644Z,69.64
2023-07-21T11:34:26.640Z,66.64
2023-07-21T11:35:26.586Z,66.05
2023-07-21T11:36:26.563Z,65.92
2023-07-21T11:37:26.652Z,67.53
2023-07-21T11:38:26.564Z,66.80
2023-07-21T11:39:26.550Z,68.04
2023-07-21T11:40:26.597Z,68.63
2023-07-21T11:41:27.580Z,69.61
2023-07-21T11:42:26.459Z,69.75
2023-07-21T11:43:26.471Z,70.36
2023-07-21T11:44:26.422Z,70.31
2023-07-21T11:45:26.414Z,72.18
2023-07-21T11:46:26.485Z,70.81
2023-07-21T11:47:26.392Z,70.16
2023-07-21T11:48:26.376Z,69.00
2023-07-21T11:49:26.325Z,69.15
2023-07-21T11:50:26.310Z,66.05
2023-07-21T11:51:26.536Z,63.48
2023-07-21T11:52:26.755Z,66.32
2023-07-21T11:53:26.364Z,66.14
2023-07-21T11:54:26.226Z,63.72
2023-07-21T11:55:26.205Z,64.79
2023-07-21T11:56:26.181Z,64.88
2023-07-21T11:57:26.277Z,66.51
2023-07-21T11:58:26.150Z,64.88
2023-07-21T11:59:26.128Z,61.38
2023-07-21T12:00:26.135Z,66.40
2023-07-21T12:01:26.306Z,69.94
2023-07-21T12:02:26.163Z,69.91
2023-07-21T12:03:26.417Z,70.47
2023-07-21T12:04:28.809Z,69.90
2023-07-21T12:05:27.032Z,69.95
2023-07-21T12:06:26.030Z,69.26
2023-07-21T12:07:26.008Z,68.37
2023-07-21T12:08:25.959Z,69.62
2023-07-21T12:09:25.956Z,69.13
2023-07-21T12:10:25.928Z,69.77
2023-07-21T12:11:26.210Z,69.34
2023-07-21T12:12:25.905Z,70.24
2023-07-21T12:13:25.858Z,70.25
2023-07-21T12:14:25.885Z,70.24
2023-07-21T12:15:25.824Z,71.09
2023-07-21T12:16:25.861Z,70.99
2023-07-21T12:17:25.840Z,71.29
2023-07-21T12:18:25.770Z,72.01
2023-07-21T12:19:25.821Z,71.89
2023-07-21T12:20:25.753Z,71.32
2023-07-21T12:21:25.979Z,71.85
2023-07-21T12:22:25.683Z,71.82
2023-07-21T12:23:25.697Z,70.88
2023-07-21T12:24:25.841Z,70.76
2023-07-21T12:25:25.656Z,68.71
2023-07-21T12:26:25.613Z,70.18
2023-07-21T12:27:25.640Z,69.81
2023-07-21T12:28:25.669Z,71.42
2023-07-21T12:29:44.155Z,71.06
2023-07-21T12:30:27.773Z,70.65
2023-07-21T12:31:25.827Z,72.02
2023-07-21T12:32:25.588Z,70.76
2023-07-21T12:33:25.589Z,71.17
2023-07-21T12:34:25.496Z,70.51
2023-07-21T12:35:25.472Z,70.86
2023-07-21T12:36:25.424Z,70.79
2023-07-21T12:37:25.401Z,70.77
2023-07-21T12:38:25.387Z,71.80
2023-07-21T12:39:25.397Z,72.63
2023-07-21T12:40:25.372Z,71.97
2023-07-21T12:41:25.546Z,70.84
2023-07-21T12:42:25.313Z,72.67
2023-07-21T12:43:25.295Z,71.81
2023-07-21T12:44:25.318Z,71.18
2023-07-21T12:45:25.257Z,70.36
2023-07-21T12:46:25.539Z,70.85
2023-07-21T12:47:25.254Z,73.03
2023-07-21T12:48:25.233Z,75.45
2023-07-21T12:49:25.221Z,75.91
2023-07-21T12:50:25.170Z,75.32
2023-07-21T12:51:25.147Z,76.58
2023-07-21T12:52:25.126Z,77.87